Аэропорт: Актау. Актау

ICAO: UATE

METAR:
2021-01-20 04:00:00
UATE 200400Z 05005MPS CAVOK M08/M09 Q1023 R30/0///70 NOSIG RMK QFE765/1021
METAR:
2021-01-19 23:01:00
TAF UATE 192301Z 2000/2024 04005G11MPS 9999 BKN030 TX00/2011Z TNM07/2004Z